ZBTJ/TSN METAR and TAF weather

Enter ICAO airport designator
Station Type Date Time Source
ZBTJ METAR 2022/01/27 22:30 UTC NOAA

ZBTJ 272230Z 33002MPS CAVOK M07/M15 Q1033 NOSIG


Station Type Date Time Source
ZBTJ Decoded METAR 2022/01/27 22:30 UTC NOAA

Tianjin / Zhangguizhu, China (ZBTJ) 39-11N 117-21E
Jan 27, 2022 - 05:30 PM EST / 2022.01.27 2230 UTC
Wind: from the NNW (330 degrees) at 4 MPH (4 KT):0
Visibility: greater than 7 mile(s):0
Temperature: 19 F (-7 C)
Dew Point: 5 F (-15 C)
Relative Humidity: 52%
Pressure (altimeter): 30.50 in. Hg (1033 hPa)
ob: ZBTJ 272230Z 33002MPS CAVOK M07/M15 Q1033 NOSIG
cycle: 22

Station Type Date Time Source
ZBTJ TAF 2022/01/27 18:03 UTC NOAA

TAF ZBTJ 271505Z 2718/2818 30003MPS 5000 HZ NSC TX03/2806Z TNM09/2721Z

Example: see airport list